createdAt,value
2018-09-27T00:00:20.886Z,4.30
2018-09-27T00:02:49.295Z,4.87
2018-09-27T00:05:17.803Z,5.63
2018-09-27T00:07:46.412Z,6.40
2018-09-27T00:10:14.890Z,8.40
2018-09-27T00:12:43.270Z,5.63
2018-09-27T00:15:11.678Z,9.07
2018-09-27T00:17:40.082Z,6.17
2018-09-27T00:20:08.497Z,7.00
2018-09-27T00:22:36.964Z,7.47
2018-09-27T00:25:05.925Z,8.50
2018-09-27T00:27:34.328Z,6.27
2018-09-27T00:30:02.781Z,7.27
2018-09-27T00:32:31.188Z,8.20
2018-09-27T00:34:59.575Z,5.90
2018-09-27T00:37:28.048Z,6.60
2018-09-27T00:39:56.697Z,6.97
2018-09-27T00:42:25.178Z,5.43
2018-09-27T00:44:53.907Z,6.03
2018-09-27T00:47:22.403Z,6.47
2018-09-27T00:49:51.112Z,5.90
2018-09-27T00:52:19.583Z,4.53
2018-09-27T00:54:48.225Z,5.87
2018-09-27T00:57:16.744Z,5.33
2018-09-27T00:59:45.397Z,4.83
2018-09-27T01:02:13.898Z,7.97
2018-09-27T01:04:42.937Z,6.30
2018-09-27T01:07:11.440Z,7.60
2018-09-27T01:09:39.972Z,9.87
2018-09-27T01:12:08.484Z,4.77
2018-09-27T01:14:36.943Z,5.77
2018-09-27T01:17:05.408Z,5.30
2018-09-27T01:19:33.847Z,6.53
2018-09-27T01:22:02.283Z,5.20
2018-09-27T01:24:30.823Z,6.77
2018-09-27T01:26:59.229Z,5.90
2018-09-27T01:29:27.625Z,7.33
2018-09-27T01:31:56.030Z,5.30
2018-09-27T01:34:24.647Z,8.50
2018-09-27T01:36:53.077Z,5.17
2018-09-27T01:39:21.608Z,5.67
2018-09-27T01:41:50.019Z,6.73
2018-09-27T01:44:18.754Z,6.37
2018-09-27T01:46:47.189Z,7.23
2018-09-27T01:49:15.601Z,7.23
2018-09-27T01:51:44.511Z,6.33
2018-09-27T01:54:13.194Z,6.77
2018-09-27T01:56:41.593Z,6.10
2018-09-27T01:59:10.025Z,11.13
2018-09-27T02:01:38.430Z,6.07
2018-09-27T02:04:06.974Z,11.83
2018-09-27T02:06:35.455Z,7.03
2018-09-27T02:09:05.820Z,7.73
2018-09-27T02:11:34.243Z,8.60
2018-09-27T02:14:02.811Z,6.10
2018-09-27T02:16:31.296Z,9.70
2018-09-27T02:18:59.877Z,5.87
2018-09-27T02:21:28.300Z,8.93
2018-09-27T02:23:56.711Z,6.57
2018-09-27T02:26:25.354Z,9.90
2018-09-27T02:28:53.948Z,6.50
2018-09-27T02:31:22.467Z,10.60
2018-09-27T02:33:50.855Z,9.50
2018-09-27T02:36:19.326Z,7.80
2018-09-27T02:38:47.723Z,8.53
2018-09-27T02:41:16.151Z,6.97
2018-09-27T02:43:44.541Z,8.07
2018-09-27T02:46:12.959Z,7.10
2018-09-27T02:48:41.951Z,10.77
2018-09-27T02:51:10.516Z,5.83
2018-09-27T02:53:39.206Z,8.00
2018-09-27T02:56:07.623Z,9.90
2018-09-27T02:58:36.038Z,9.10
2018-09-27T03:01:04.481Z,5.87
2018-09-27T03:03:32.892Z,5.93
2018-09-27T03:06:01.317Z,7.40
2018-09-27T03:08:29.731Z,7.10
2018-09-27T03:10:58.104Z,7.30
2018-09-27T03:13:26.485Z,6.10
2018-09-27T03:15:54.893Z,6.57
2018-09-27T03:18:23.400Z,7.23
2018-09-27T03:20:51.972Z,8.43
2018-09-27T03:23:20.543Z,8.07
2018-09-27T03:25:49.201Z,9.33
2018-09-27T03:28:18.822Z,6.70
2018-09-27T03:30:47.705Z,7.67
2018-09-27T03:33:16.227Z,6.07
2018-09-27T03:35:46.919Z,10.90
2018-09-27T03:38:15.525Z,6.80
2018-09-27T03:40:44.252Z,8.03
2018-09-27T03:43:12.577Z,8.47
2018-09-27T03:45:41.003Z,7.17
2018-09-27T03:48:09.505Z,7.43
2018-09-27T03:50:37.910Z,6.53
2018-09-27T03:53:06.467Z,7.97
2018-09-27T03:55:34.903Z,8.07
2018-09-27T03:58:03.342Z,7.70
2018-09-27T04:00:31.756Z,5.50
2018-09-27T04:03:00.396Z,8.33
2018-09-27T04:05:28.797Z,5.90
2018-09-27T04:07:57.237Z,9.40
2018-09-27T04:10:25.647Z,8.90
2018-09-27T04:12:54.107Z,8.43
2018-09-27T04:15:22.856Z,12.77
2018-09-27T04:17:51.255Z,9.07
2018-09-27T04:20:19.786Z,8.17
2018-09-27T04:22:48.199Z,6.93
2018-09-27T04:25:16.601Z,9.00
2018-09-27T04:27:45.148Z,8.00
2018-09-27T04:30:13.643Z,13.23
2018-09-27T04:32:42.064Z,7.83
2018-09-27T04:35:10.592Z,7.60
2018-09-27T04:37:39.105Z,6.70
2018-09-27T04:40:07.636Z,11.53
2018-09-27T04:42:36.144Z,7.83
2018-09-27T04:45:04.927Z,10.97
2018-09-27T04:47:33.337Z,7.77
2018-09-27T04:50:01.746Z,7.70
2018-09-27T04:52:30.168Z,6.83
2018-09-27T04:54:58.792Z,8.90
2018-09-27T04:57:27.257Z,8.27
2018-09-27T04:59:55.698Z,8.97
2018-09-27T05:02:24.114Z,5.93
2018-09-27T05:04:52.555Z,6.97
2018-09-27T05:07:20.962Z,10.23
2018-09-27T05:09:49.374Z,8.00
2018-09-27T05:12:18.505Z,7.87
2018-09-27T05:14:46.950Z,8.23
2018-09-27T05:17:15.363Z,7.20
2018-09-27T05:19:43.881Z,6.30
2018-09-27T05:22:12.270Z,8.30
2018-09-27T05:24:40.686Z,10.70
2018-09-27T05:27:09.449Z,8.97
2018-09-27T05:29:37.821Z,7.23
2018-09-27T05:32:06.564Z,11.10
2018-09-27T05:34:35.000Z,7.37
2018-09-27T05:37:03.416Z,7.07
2018-09-27T05:39:31.842Z,7.23
2018-09-27T05:42:00.386Z,7.43
2018-09-27T05:44:28.848Z,7.13
2018-09-27T05:46:57.269Z,6.17
2018-09-27T05:49:25.784Z,9.20
2018-09-27T05:51:54.185Z,8.43
2018-09-27T05:54:22.610Z,9.97
2018-09-27T05:56:51.123Z,11.33
2018-09-27T05:59:19.646Z,11.30
2018-09-27T06:01:48.093Z,12.23
2018-09-27T06:04:16.622Z,13.77
2018-09-27T06:06:45.071Z,10.07
2018-09-27T06:09:13.624Z,9.33
2018-09-27T06:11:42.531Z,10.93
2018-09-27T06:14:10.945Z,11.00
2018-09-27T06:16:39.605Z,9.47
2018-09-27T06:19:08.836Z,12.17
2018-09-27T06:21:37.879Z,11.27
2018-09-27T06:24:06.547Z,9.80
2018-09-27T06:26:35.061Z,11.43
2018-09-27T06:29:03.837Z,9.97
2018-09-27T06:31:32.299Z,9.87
2018-09-27T06:34:00.775Z,9.90
2018-09-27T06:36:29.211Z,9.23
2018-09-27T06:38:57.640Z,13.13
2018-09-27T06:41:26.468Z,12.70
2018-09-27T06:43:54.823Z,14.13
2018-09-27T06:46:23.366Z,15.33
2018-09-27T06:48:51.876Z,10.87
2018-09-27T06:51:20.248Z,12.23
2018-09-27T06:53:48.667Z,12.07
2018-09-27T06:56:17.174Z,13.83
2018-09-27T06:58:45.525Z,18.27
2018-09-27T07:01:13.936Z,15.90
2018-09-27T07:03:42.362Z,15.13
2018-09-27T07:06:10.773Z,13.70
2018-09-27T07:08:39.225Z,12.20
2018-09-27T07:11:07.647Z,11.73
2018-09-27T07:13:36.091Z,12.37
2018-09-27T07:16:04.499Z,14.20
2018-09-27T07:18:33.170Z,12.20
2018-09-27T07:21:01.639Z,12.07
2018-09-27T07:23:30.053Z,13.53
2018-09-27T07:25:58.451Z,12.33
2018-09-27T07:28:26.865Z,10.73
2018-09-27T07:30:55.349Z,12.07
2018-09-27T07:33:23.830Z,11.70
2018-09-27T07:35:52.285Z,15.47
2018-09-27T07:38:20.716Z,12.90
2018-09-27T07:40:49.121Z,18.63
2018-09-27T07:43:17.693Z,57.07
2018-09-27T07:45:46.114Z,94.03
2018-09-27T07:48:14.540Z,105.40
2018-09-27T07:50:43.003Z,89.47
2018-09-27T07:53:11.429Z,70.43
2018-09-27T07:55:39.986Z,51.27
2018-09-27T07:58:08.752Z,26.87
2018-09-27T08:00:40.291Z,21.33
2018-09-27T08:03:09.211Z,13.20
2018-09-27T08:05:38.078Z,10.63
2018-09-27T08:08:06.836Z,11.00
2018-09-27T08:10:35.381Z,11.33
2018-09-27T08:13:03.817Z,14.10
2018-09-27T08:15:32.227Z,16.83
2018-09-27T08:18:00.657Z,10.87
2018-09-27T08:20:29.087Z,13.03
2018-09-27T08:22:57.669Z,9.67
2018-09-27T08:25:26.172Z,10.67
2018-09-27T08:27:54.681Z,7.77
2018-09-27T08:30:23.534Z,7.33
2018-09-27T08:32:52.004Z,6.45
2018-09-27T08:35:20.448Z,10.00
2018-09-27T08:37:48.916Z,8.20
2018-09-27T08:40:17.417Z,9.28
2018-09-27T08:42:45.819Z,9.50
2018-09-27T08:45:14.550Z,9.68
2018-09-27T08:47:42.795Z,14.60
2018-09-27T08:50:11.235Z,11.30
2018-09-27T08:52:40.217Z,7.60
2018-09-27T08:55:08.675Z,8.58
2018-09-27T08:57:37.185Z,7.37
2018-09-27T09:00:06.008Z,11.15
2018-09-27T09:02:34.459Z,6.58
2018-09-27T09:05:02.917Z,7.33
2018-09-27T09:07:31.394Z,7.60
2018-09-27T09:09:59.798Z,6.58
2018-09-27T09:12:28.232Z,8.30
2018-09-27T09:14:56.687Z,8.20
2018-09-27T09:17:25.239Z,5.83
2018-09-27T09:19:53.670Z,6.42
2018-09-27T09:22:22.127Z,8.05
2018-09-27T09:24:50.672Z,7.22
2018-09-27T09:27:19.070Z,6.78
2018-09-27T09:29:47.650Z,5.90
2018-09-27T09:32:16.304Z,6.10
2018-09-27T09:34:44.822Z,11.93
2018-09-27T09:37:13.262Z,5.08
2018-09-27T09:39:41.769Z,10.50
2018-09-27T09:42:10.191Z,6.62
2018-09-27T09:44:38.604Z,6.25
2018-09-27T09:47:07.225Z,7.78
2018-09-27T09:49:35.636Z,4.47
2018-09-27T09:52:04.167Z,8.13
2018-09-27T09:54:32.584Z,12.60
2018-09-27T09:57:01.017Z,5.83
2018-09-27T09:59:29.656Z,8.95
2018-09-27T10:01:58.059Z,6.00
2018-09-27T10:04:26.527Z,5.37
2018-09-27T10:06:54.957Z,7.28
2018-09-27T10:09:23.498Z,8.63
2018-09-27T10:11:51.921Z,5.47
2018-09-27T10:14:20.337Z,4.50
2018-09-27T10:16:48.742Z,8.55
2018-09-27T10:19:17.153Z,4.80
2018-09-27T10:21:45.684Z,6.65
2018-09-27T10:24:14.211Z,6.35
2018-09-27T10:26:42.631Z,6.15
2018-09-27T10:29:11.036Z,5.20
2018-09-27T10:31:39.615Z,6.65
2018-09-27T10:34:08.082Z,5.58
2018-09-27T10:36:36.563Z,4.75
2018-09-27T10:39:07.672Z,7.00
2018-09-27T10:41:36.076Z,4.42
2018-09-27T10:44:04.543Z,5.85
2018-09-27T10:46:33.059Z,5.67
2018-09-27T10:49:01.478Z,3.40
2018-09-27T10:51:29.950Z,4.78
2018-09-27T10:53:58.348Z,4.20
2018-09-27T10:56:26.781Z,2.65
2018-09-27T10:58:55.197Z,5.10
2018-09-27T11:01:23.628Z,6.97
2018-09-27T11:03:52.036Z,7.10
2018-09-27T11:06:20.450Z,7.00
2018-09-27T11:08:48.877Z,9.20
2018-09-27T11:11:17.301Z,4.92
2018-09-27T11:13:45.714Z,4.50
2018-09-27T11:16:14.148Z,5.83
2018-09-27T11:18:42.591Z,5.08
2018-09-27T11:21:11.016Z,8.45
2018-09-27T11:23:39.429Z,6.95
2018-09-27T11:26:07.909Z,8.58
2018-09-27T11:28:41.732Z,5.30
2018-09-27T11:31:15.301Z,5.17
2018-09-27T11:33:43.707Z,5.22
2018-09-27T11:36:12.545Z,7.08
2018-09-27T11:38:40.966Z,5.47
2018-09-27T11:41:09.343Z,4.95
2018-09-27T11:43:37.741Z,3.25
2018-09-27T11:46:06.177Z,6.20
2018-09-27T11:48:34.591Z,4.83
2018-09-27T11:51:03.069Z,3.40
2018-09-27T11:53:31.548Z,4.95
2018-09-27T11:56:00.050Z,4.47
2018-09-27T11:58:28.441Z,4.55
2018-09-27T12:00:56.906Z,5.78
2018-09-27T12:03:25.413Z,2.87
2018-09-27T12:05:53.850Z,2.80
2018-09-27T12:08:22.315Z,5.92
2018-09-27T12:10:51.295Z,6.40
2018-09-27T12:13:19.741Z,4.28
2018-09-27T12:15:48.136Z,5.53
2018-09-27T12:18:16.564Z,6.45
2018-09-27T12:20:44.982Z,8.35
2018-09-27T12:23:13.401Z,5.47
2018-09-27T12:25:41.921Z,3.85
2018-09-27T12:28:10.310Z,4.05
2018-09-27T12:30:38.751Z,7.28
2018-09-27T12:33:07.303Z,3.67
2018-09-27T12:35:35.748Z,4.42
2018-09-27T12:38:04.170Z,4.60
2018-09-27T12:40:33.558Z,6.40
2018-09-27T12:43:02.070Z,9.90
2018-09-27T12:45:30.606Z,6.12
2018-09-27T12:47:59.054Z,4.72
2018-09-27T12:50:27.531Z,5.33
2018-09-27T12:52:56.028Z,7.35
2018-09-27T12:55:24.383Z,6.17
2018-09-27T12:57:52.840Z,6.17
2018-09-27T13:00:21.264Z,5.55
2018-09-27T13:02:49.800Z,5.00
2018-09-27T13:05:18.103Z,7.67
2018-09-27T13:07:46.495Z,6.28
2018-09-27T13:10:14.975Z,5.95
2018-09-27T13:12:43.395Z,7.37
2018-09-27T13:15:11.908Z,7.25
2018-09-27T13:17:40.346Z,5.62
2018-09-27T13:20:09.111Z,12.30
2018-09-27T13:22:38.420Z,6.72
2018-09-27T13:25:06.954Z,5.47
2018-09-27T13:27:35.478Z,6.58
2018-09-27T13:30:04.337Z,7.28
2018-09-27T13:32:32.748Z,7.65
2018-09-27T13:35:01.177Z,8.00
2018-09-27T13:37:29.655Z,6.22
2018-09-27T13:39:58.183Z,5.95
2018-09-27T13:42:26.691Z,5.28
2018-09-27T13:44:55.157Z,6.00
2018-09-27T13:47:23.573Z,4.10
2018-09-27T13:49:51.983Z,4.55
2018-09-27T13:52:20.393Z,6.80
2018-09-27T13:54:48.797Z,4.55
2018-09-27T13:57:17.329Z,4.25
2018-09-27T13:59:45.711Z,5.22
2018-09-27T14:02:14.123Z,6.20
2018-09-27T14:04:42.556Z,7.50
2018-09-27T14:07:10.999Z,5.22
2018-09-27T14:09:39.442Z,4.42
2018-09-27T14:12:07.872Z,5.92
2018-09-27T14:14:36.646Z,3.08
2018-09-27T14:17:05.198Z,6.15
2018-09-27T14:19:33.557Z,5.15
2018-09-27T14:22:02.062Z,4.65
2018-09-27T14:24:30.511Z,4.53
2018-09-27T14:26:58.977Z,5.60
2018-09-27T14:29:27.392Z,4.15
2018-09-27T14:31:55.786Z,5.28
2018-09-27T14:34:24.224Z,9.20
2018-09-27T14:36:52.637Z,5.30
2018-09-27T14:39:21.184Z,5.65
2018-09-27T14:41:49.584Z,4.15
2018-09-27T14:44:18.000Z,3.67
2018-09-27T14:46:46.528Z,3.37
2018-09-27T14:49:14.940Z,6.58
2018-09-27T14:51:43.368Z,6.58
2018-09-27T14:54:11.867Z,4.62
2018-09-27T14:56:40.304Z,2.45
2018-09-27T14:59:08.749Z,5.83
2018-09-27T15:01:37.186Z,4.05
2018-09-27T15:04:05.895Z,4.85
2018-09-27T15:06:34.530Z,4.50
2018-09-27T15:09:02.948Z,5.42
2018-09-27T15:11:31.381Z,7.95
2018-09-27T15:13:59.816Z,3.02
2018-09-27T15:16:28.419Z,2.62
2018-09-27T15:18:56.931Z,4.95
2018-09-27T15:21:25.428Z,2.62
2018-09-27T15:23:54.009Z,2.75
2018-09-27T15:26:22.473Z,3.12
2018-09-27T15:28:50.935Z,6.75
2018-09-27T15:31:19.386Z,4.97
2018-09-27T15:33:47.852Z,7.62
2018-09-27T15:36:16.292Z,6.50
2018-09-27T15:38:44.703Z,7.80
2018-09-27T15:41:13.122Z,3.75
2018-09-27T15:43:41.528Z,4.17
2018-09-27T15:46:09.943Z,3.80
2018-09-27T15:48:38.523Z,4.58
2018-09-27T15:51:07.048Z,5.50
2018-09-27T15:53:35.520Z,4.25
2018-09-27T15:56:03.994Z,5.90
2018-09-27T15:58:33.172Z,4.87
2018-09-27T16:01:01.679Z,3.90
2018-09-27T16:03:30.111Z,5.83
2018-09-27T16:05:59.466Z,5.30
2018-09-27T16:08:27.891Z,4.42
2018-09-27T16:10:56.430Z,4.65
2018-09-27T16:13:24.996Z,5.72
2018-09-27T16:15:53.432Z,5.78
2018-09-27T16:18:21.980Z,5.55
2018-09-27T16:20:50.415Z,4.85
2018-09-27T16:23:18.849Z,8.28
2018-09-27T16:25:47.284Z,6.72
2018-09-27T16:28:15.732Z,6.72
2018-09-27T16:30:44.145Z,7.47
2018-09-27T16:33:12.708Z,5.58
2018-09-27T16:35:41.256Z,10.25
2018-09-27T16:38:09.656Z,7.70
2018-09-27T16:40:38.113Z,4.55
2018-09-27T16:43:07.257Z,5.65
2018-09-27T16:45:35.746Z,5.78
2018-09-27T16:48:04.319Z,7.03
2018-09-27T16:50:32.814Z,6.85
2018-09-27T16:53:01.351Z,5.85
2018-09-27T16:55:29.794Z,8.85
2018-09-27T16:57:58.232Z,9.63
2018-09-27T17:00:26.801Z,10.60
2018-09-27T17:02:55.611Z,9.05
2018-09-27T17:05:24.088Z,7.75
2018-09-27T17:07:52.506Z,5.25
2018-09-27T17:10:20.931Z,5.00
2018-09-27T17:12:49.320Z,9.38
2018-09-27T17:15:17.780Z,6.15
2018-09-27T17:17:46.360Z,5.20
2018-09-27T17:20:14.744Z,5.08
2018-09-27T17:22:43.349Z,5.00
2018-09-27T17:25:11.747Z,4.83
2018-09-27T17:27:40.202Z,3.77
2018-09-27T17:30:08.795Z,5.33
2018-09-27T17:32:37.277Z,7.40
2018-09-27T17:35:05.816Z,9.07
2018-09-27T17:37:34.311Z,4.07
2018-09-27T17:40:03.309Z,7.67
2018-09-27T17:42:31.767Z,5.73
2018-09-27T17:45:00.311Z,5.37
2018-09-27T17:47:28.717Z,5.37
2018-09-27T17:49:57.252Z,4.60
2018-09-27T17:52:25.665Z,4.13
2018-09-27T17:54:54.097Z,5.37
2018-09-27T17:57:23.494Z,7.17
2018-09-27T17:59:54.143Z,7.13
2018-09-27T18:02:23.347Z,5.37
2018-09-27T18:04:51.888Z,8.20
2018-09-27T18:07:20.575Z,8.23
2018-09-27T18:09:49.284Z,7.63
2018-09-27T18:12:17.751Z,10.40
2018-09-27T18:14:46.193Z,10.00
2018-09-27T18:17:14.664Z,11.40
2018-09-27T18:19:43.281Z,10.07
2018-09-27T18:22:11.659Z,9.17
2018-09-27T18:24:40.090Z,8.27
2018-09-27T18:27:08.602Z,8.87
2018-09-27T18:29:37.022Z,7.33
2018-09-27T18:32:05.601Z,7.60
2018-09-27T18:34:34.215Z,6.80
2018-09-27T18:37:02.639Z,9.33
2018-09-27T18:39:31.059Z,5.67
2018-09-27T18:41:59.469Z,7.60
2018-09-27T18:44:27.944Z,7.83
2018-09-27T18:46:56.350Z,10.77
2018-09-27T18:49:24.871Z,10.90
2018-09-27T18:51:53.354Z,12.07
2018-09-27T18:54:21.776Z,9.67
2018-09-27T18:56:50.322Z,8.60
2018-09-27T18:59:18.772Z,9.13
2018-09-27T19:01:47.228Z,5.63
2018-09-27T19:04:15.811Z,7.93
2018-09-27T19:06:44.224Z,5.70
2018-09-27T19:09:14.105Z,9.77
2018-09-27T19:11:42.515Z,7.30
2018-09-27T19:14:10.955Z,10.33
2018-09-27T19:16:39.388Z,10.43
2018-09-27T19:19:07.864Z,10.40
2018-09-27T19:21:36.292Z,12.63
2018-09-27T19:24:04.702Z,7.80
2018-09-27T19:26:33.100Z,8.03
2018-09-27T19:29:01.683Z,9.33
2018-09-27T19:31:30.107Z,7.30
2018-09-27T19:33:58.651Z,7.70
2018-09-27T19:36:27.303Z,8.43
2018-09-27T19:38:55.744Z,8.20
2018-09-27T19:41:24.176Z,8.33
2018-09-27T19:43:52.741Z,10.47
2018-09-27T19:46:21.167Z,6.17
2018-09-27T19:48:49.684Z,8.37
2018-09-27T19:51:18.178Z,5.47
2018-09-27T19:53:46.684Z,6.83
2018-09-27T19:56:15.302Z,7.93
2018-09-27T19:58:43.721Z,7.73
2018-09-27T20:01:12.148Z,10.63
2018-09-27T20:03:40.585Z,9.37
2018-09-27T20:06:09.042Z,9.37
2018-09-27T20:08:37.538Z,7.47
2018-09-27T20:11:06.225Z,9.37
2018-09-27T20:13:34.650Z,10.57
2018-09-27T20:16:03.964Z,6.67
2018-09-27T20:18:32.383Z,8.37
2018-09-27T20:21:01.246Z,8.90
2018-09-27T20:23:29.724Z,8.03
2018-09-27T20:25:58.313Z,8.87
2018-09-27T20:28:26.794Z,6.50
2018-09-27T20:30:55.322Z,9.83
2018-09-27T20:33:23.854Z,10.30
2018-09-27T20:35:52.277Z,11.43
2018-09-27T20:38:20.701Z,7.33
2018-09-27T20:40:49.114Z,5.90
2018-09-27T20:43:17.549Z,8.13
2018-09-27T20:45:45.979Z,5.47
2018-09-27T20:48:14.565Z,6.10
2018-09-27T20:50:45.879Z,7.03
2018-09-27T20:53:16.094Z,9.30
2018-09-27T20:55:46.226Z,8.97
2018-09-27T20:58:16.231Z,8.57
2018-09-27T21:00:46.112Z,10.30
2018-09-27T21:03:15.152Z,8.97
2018-09-27T21:05:44.499Z,9.30
2018-09-27T21:08:20.272Z,6.30
2018-09-27T21:10:53.346Z,11.57
2018-09-27T21:13:24.373Z,6.87
2018-09-27T21:15:54.977Z,7.90
2018-09-27T21:18:25.641Z,8.43
2018-09-27T21:20:55.543Z,8.43
2018-09-27T21:23:29.600Z,11.00
2018-09-27T21:26:00.490Z,12.60
2018-09-27T21:28:29.015Z,10.67
2018-09-27T21:30:57.447Z,7.90
2018-09-27T21:33:26.027Z,9.83
2018-09-27T21:35:55.056Z,8.43
2018-09-27T21:38:23.468Z,9.70
2018-09-27T21:40:52.010Z,9.07
2018-09-27T21:43:20.618Z,9.57
2018-09-27T21:45:48.974Z,9.77
2018-09-27T21:48:17.371Z,9.87
2018-09-27T21:50:45.861Z,7.73
2018-09-27T21:53:14.298Z,12.67
2018-09-27T21:55:42.736Z,9.27
2018-09-27T21:58:11.164Z,12.83
2018-09-27T22:00:39.625Z,11.00
2018-09-27T22:03:08.027Z,11.53
2018-09-27T22:05:36.558Z,12.20
2018-09-27T22:08:04.965Z,10.53
2018-09-27T22:10:33.363Z,12.13
2018-09-27T22:13:01.753Z,9.67
2018-09-27T22:15:30.168Z,12.53
2018-09-27T22:17:58.581Z,11.00
2018-09-27T22:20:26.999Z,11.60
2018-09-27T22:22:55.500Z,9.67
2018-09-27T22:25:23.902Z,10.20
2018-09-27T22:27:52.531Z,8.87
2018-09-27T22:30:20.963Z,10.53
2018-09-27T22:32:49.452Z,10.57
2018-09-27T22:35:18.003Z,16.13
2018-09-27T22:37:46.446Z,14.40
2018-09-27T22:40:14.867Z,14.33
2018-09-27T22:42:43.436Z,18.57
2018-09-27T22:45:11.991Z,16.43
2018-09-27T22:47:40.395Z,16.20
2018-09-27T22:50:08.924Z,10.60
2018-09-27T22:52:38.144Z,12.70
2018-09-27T22:55:06.609Z,15.13
2018-09-27T22:57:35.049Z,9.17
2018-09-27T23:00:03.515Z,9.23
2018-09-27T23:02:31.948Z,11.33
2018-09-27T23:05:00.387Z,10.20
2018-09-27T23:07:28.784Z,7.63
2018-09-27T23:09:57.336Z,7.90
2018-09-27T23:12:25.757Z,8.23
2018-09-27T23:14:54.220Z,9.83
2018-09-27T23:17:22.631Z,8.00
2018-09-27T23:19:51.110Z,10.37
2018-09-27T23:22:19.514Z,8.23
2018-09-27T23:24:47.919Z,9.23
2018-09-27T23:27:16.377Z,9.17
2018-09-27T23:29:44.786Z,13.00
2018-09-27T23:32:13.308Z,11.37
2018-09-27T23:34:41.793Z,8.23
2018-09-27T23:37:10.230Z,8.57
2018-09-27T23:39:38.635Z,12.40
2018-09-27T23:42:07.084Z,8.47
2018-09-27T23:44:35.595Z,9.30
2018-09-27T23:47:04.015Z,8.40
2018-09-27T23:49:33.307Z,11.37
2018-09-27T23:52:01.747Z,9.53
2018-09-27T23:54:30.308Z,13.17
2018-09-27T23:56:58.712Z,8.53
2018-09-27T23:59:27.226Z,9.40
